Meadow Valley, California
Current Conditions -  °F | °C
As of 9:53 PM on Monday 20 Oct 2014 (Local Time) from KOVE Reporting Station
Clear Clear  
Wind Chill: 58°   Ceiling: Unl
Heat Index: 58°   Visibility: 10mi
Dew Point: 47°   Wind: 5mph
Humidity: 67%   Direction: 140°SE
Pressure: 29.99"   Gusts: NA
Location:  39.93°N, 121.06°W
Report Text: KOVE 210453Z AUTO 14004KT 10SM CLR 14/08 A2999 RMK AO2 SLP156 T01440083 $
Loading
Personal Weather Stations






























Interactive Weather Map
Tropical Storm Tracking
New forecast layout! Learn more

10-Day Weather Forecast

Advertisements
Track Severe Weather on mobile